Time;durP1;ratioP1;P1;durP2;ratioP2;P2;SDS_P1;SDS_P2;PMS_P1;PMS_P2;Temp;Humidity;BMP_temperature;BMP_pressure;BME280_temperature;BME280_humidity;BME280_pressure;Samples;Min_cycle;Max_cycle;Signal;HPM_P1;HPM_P2
2023/05/22 00:00:17;;;;;;;10.70;9.63;;;19.40;1.00;;;;;;5062204;28;20188;-53
2023/05/22 00:02:43;;;;;;;11.13;10.00;;;19.40;1.00;;;;;;5071686;28;20188;-54
2023/05/22 00:05:11;;;;;;;11.27;10.23;;;19.30;1.00;;;;;;5065160;28;20432;-54
2023/05/22 00:07:37;;;;;;;12.47;11.27;;;19.40;1.00;;;;;;5054455;28;20187;-55
2023/05/22 00:10:04;;;;;;;11.83;10.70;;;19.30;1.00;;;;;;5062564;28;20495;-53
2023/05/22 00:12:30;;;;;;;11.23;10.30;;;19.30;1.00;;;;;;5066329;28;20962;-52
2023/05/22 00:14:55;;;;;;;10.80;9.70;;;19.20;1.00;;;;;;5065522;28;20449;-53
2023/05/22 00:17:23;;;;;;;11.40;10.40;;;19.10;1.00;;;;;;5060667;28;20181;-55
2023/05/22 00:19:50;;;;;;;12.30;10.20;;;19.10;1.00;;;;;;5069746;28;20180;-55
2023/05/22 00:22:16;;;;;;;10.80;9.87;;;19.00;1.00;;;;;;5060063;28;20602;-56
2023/05/22 00:24:41;;;;;;;10.60;9.70;;;19.10;1.00;;;;;;5061334;28;20463;-52
2023/05/22 00:27:07;;;;;;;10.27;9.37;;;19.00;1.00;;;;;;5063306;28;20185;-52
2023/05/22 00:29:33;;;;;;;9.80;8.90;;;19.00;1.00;;;;;;5064892;28;20221;-54
2023/05/22 00:31:59;;;;;;;10.17;9.27;;;19.00;1.00;;;;;;5065567;28;20241;-52
2023/05/22 00:34:24;;;;;;;11.03;9.93;;;18.90;1.00;;;;;;5064658;28;20560;-52
2023/05/22 00:36:50;;;;;;;10.40;9.40;;;18.90;1.00;;;;;;5065490;28;20274;-54
2023/05/22 00:39:15;;;;;;;10.77;9.77;;;18.80;1.00;;;;;;5065211;28;20243;-53
2023/05/22 00:41:41;;;;;;;11.10;9.90;;;18.80;1.00;;;;;;5062567;28;20199;-52
2023/05/22 00:44:09;;;;;;;12.70;10.43;;;18.80;1.00;;;;;;5065774;28;20553;-53
2023/05/22 00:46:35;;;;;;;10.80;9.80;;;18.70;1.00;;;;;;5067934;28;20200;-54
2023/05/22 00:49:00;;;;;;;10.73;9.63;;;18.80;1.00;;;;;;5062842;28;20446;-52
2023/05/22 00:51:27;;;;;;;10.30;9.40;;;18.80;1.00;;;;;;5065102;28;20990;-54
2023/05/22 00:53:53;;;;;;;11.30;10.30;;;18.90;1.00;;;;;;5068081;28;20199;-51
2023/05/22 00:56:20;;;;;;;12.43;11.20;;;18.90;1.00;;;;;;5069869;28;20446;-54
2023/05/22 00:58:46;;;;;;;12.37;11.07;;;18.80;1.00;;;;;;5060205;28;20490;-54
2023/05/22 01:01:14;;;;;;;12.37;11.00;;;18.70;1.00;;;;;;5065204;28;20830;-55
2023/05/22 01:03:44;;;;;;;12.13;10.93;;;18.60;1.00;;;;;;5057114;28;20812;-53
2023/05/22 01:06:14;;;;;;;11.93;10.83;;;18.50;1.00;;;;;;5066589;28;20772;-54
2023/05/22 01:08:41;;;;;;;11.20;10.10;;;18.50;1.00;;;;;;5062765;28;21073;-53
2023/05/22 01:11:17;;;;;;;11.70;10.50;;;18.50;1.00;;;;;;5061376;28;20449;-54
2023/05/22 01:14:17;;;;;;;14.03;12.70;;;18.50;1.00;;;;;;5067079;28;20445;-51
2023/05/22 01:17:22;;;;;;;16.77;10.50;;;18.50;1.00;;;;;;5066266;28;20444;-52
2023/05/22 01:20:20;;;;;;;11.33;10.23;;;18.40;1.00;;;;;;5059880;28;20468;-56
2023/05/22 01:22:48;;;;;;;12.30;11.20;;;18.40;1.00;;;;;;5063205;28;20442;-52
2023/05/22 01:25:17;;;;;;;12.87;11.67;;;18.30;1.00;;;;;;5064229;28;20799;-54
2023/05/22 01:28:00;;;;;;;13.23;11.80;;;18.20;1.00;;;;;;5068515;28;20442;-52
2023/05/22 01:30:44;;;;;;;12.67;11.37;;;18.30;1.00;;;;;;5067100;28;20548;-53
2023/05/22 01:33:13;;;;;;;12.60;11.30;;;18.30;1.00;;;;;;5066466;28;20457;-54
2023/05/22 01:35:40;;;;;;;11.93;10.83;;;18.20;1.00;;;;;;5064729;28;20846;-54
2023/05/22 01:38:07;;;;;;;11.53;10.40;;;18.20;1.00;;;;;;5066742;28;20485;-54
2023/05/22 01:40:33;;;;;;;12.57;11.10;;;18.10;1.00;;;;;;5064301;28;20450;-55
2023/05/22 01:43:00;;;;;;;14.23;11.47;;;18.10;1.00;;;;;;5064089;28;20442;-52
2023/05/22 01:45:25;;;;;;;15.17;11.10;;;18.10;1.00;;;;;;5065318;28;20188;-52
2023/05/22 01:47:51;;;;;;;13.27;12.00;;;18.10;1.00;;;;;;5071439;28;20463;-52
2023/05/22 01:50:17;;;;;;;12.20;11.10;;;18.10;1.00;;;;;;5064656;28;20697;-53
2023/05/22 01:53:06;;;;;;;12.50;11.30;;;18.10;1.00;;;;;;5062935;28;20238;-54
2023/05/22 01:55:39;;;;;;;12.80;11.63;;;18.00;1.00;;;;;;5064093;28;20719;-53
2023/05/22 01:58:25;;;;;;;12.30;11.03;;;18.10;1.00;;;;;;5066251;28;20538;-51
2023/05/22 02:00:55;;;;;;;12.57;11.20;;;18.00;1.00;;;;;;5063114;28;20434;-53
2023/05/22 02:03:26;;;;;;;12.37;10.60;;;18.00;1.00;;;;;;5069041;28;20438;-51
2023/05/22 02:05:54;;;;;;;11.03;9.93;;;17.90;1.00;;;;;;5057661;28;20458;-54
2023/05/22 02:08:21;;;;;;;12.67;11.47;;;17.90;1.00;;;;;;5058549;28;20452;-54
2023/05/22 02:10:48;;;;;;;12.87;11.67;;;18.00;1.00;;;;;;5060853;28;20492;-54
2023/05/22 02:13:14;;;;;;;13.30;11.20;;;17.90;1.00;;;;;;5061885;28;20482;-54
2023/05/22 02:15:43;;;;;;;13.53;11.80;;;17.90;1.00;;;;;;5067529;28;20469;-55
2023/05/22 02:18:12;;;;;;;11.13;10.10;;;18.00;1.00;;;;;;5065636;28;20474;-52
2023/05/22 02:20:38;;;;;;;12.70;11.40;;;17.90;1.00;;;;;;5057429;28;20451;-53
2023/05/22 02:23:04;;;;;;;11.37;10.30;;;17.80;1.00;;;;;;5061277;28;20954;-55
2023/05/22 02:25:29;;;;;;;12.60;10.40;;;17.80;1.00;;;;;;5066893;28;20196;-54
2023/05/22 02:27:55;;;;;;;11.90;10.90;;;17.80;1.00;;;;;;5059864;28;20206;-53
2023/05/22 02:30:21;;;;;;;12.70;11.43;;;17.70;1.00;;;;;;5064742;28;20255;-55
2023/05/22 02:32:46;;;;;;;11.60;10.60;;;17.70;1.00;;;;;;5066517;28;20192;-54
2023/05/22 02:35:12;;;;;;;12.27;11.07;;;17.60;1.00;;;;;;5056518;28;20199;-54
2023/05/22 02:37:38;;;;;;;11.60;10.40;;;17.70;1.00;;;;;;5061671;28;20245;-55
2023/05/22 02:40:07;;;;;;;12.73;10.60;;;17.60;1.00;;;;;;5060866;28;20234;-54
2023/05/22 02:42:33;;;;;;;11.07;10.07;;;17.60;1.00;;;;;;5065954;28;20180;-51
2023/05/22 02:44:59;;;;;;;11.67;10.57;;;17.50;1.00;;;;;;5067163;28;20532;-52
2023/05/22 02:47:25;;;;;;;11.23;10.07;;;17.40;1.00;;;;;;5061551;28;20486;-54
2023/05/22 02:49:50;;;;;;;11.63;10.30;;;17.40;1.00;;;;;;5060752;28;20194;-55
2023/05/22 02:52:16;;;;;;;11.53;10.57;;;17.40;1.00;;;;;;5059522;28;20175;-51
2023/05/22 02:54:42;;;;;;;11.40;10.30;;;17.40;1.00;;;;;;5062174;28;20196;-56
2023/05/22 02:57:07;;;;;;;12.20;11.10;;;17.40;1.00;;;;;;5071024;28;20219;-52
2023/05/22 02:59:35;;;;;;;10.80;9.80;;;17.40;1.00;;;;;;5072257;28;20310;-53
2023/05/22 03:02:01;;;;;;;11.43;10.43;;;17.40;1.00;;;;;;5061566;28;20192;-54
2023/05/22 03:04:28;;;;;;;11.73;10.63;;;17.40;1.00;;;;;;5062350;28;20872;-51
2023/05/22 03:06:54;;;;;;;14.23;10.40;;;17.40;1.00;;;;;;5055328;28;21782;-55
2023/05/22 03:09:20;;;;;;;11.03;10.03;;;17.40;1.00;;;;;;5053059;28;20446;-53
2023/05/22 03:11:46;;;;;;;12.10;11.00;;;17.40;1.00;;;;;;5057980;28;20450;-55
2023/05/22 03:14:11;;;;;;;12.60;10.00;;;17.40;1.00;;;;;;5060458;28;20238;-54
2023/05/22 03:16:37;;;;;;;12.03;10.80;;;17.40;1.00;;;;;;5062941;28;20192;-52
2023/05/22 03:19:10;;;;;;;12.60;11.50;;;17.40;1.00;;;;;;5064455;28;20617;-52
2023/05/22 03:21:36;;;;;;;12.37;11.07;;;17.30;1.00;;;;;;5062803;28;20184;-55
2023/05/22 03:24:02;;;;;;;13.10;10.50;;;17.30;1.00;;;;;;5065400;28;20728;-53
2023/05/22 03:26:28;;;;;;;12.53;10.40;;;17.30;1.00;;;;;;5062077;28;20446;-53
2023/05/22 03:28:55;;;;;;;12.90;11.50;;;17.30;1.00;;;;;;5066182;28;20814;-53
2023/05/22 03:31:21;;;;;;;11.40;10.37;;;17.20;1.00;;;;;;5062190;28;20282;-55
2023/05/22 03:33:47;;;;;;;11.73;10.73;;;17.30;1.00;;;;;;5064534;28;20446;-56
2023/05/22 03:36:13;;;;;;;12.97;11.67;;;17.30;1.00;;;;;;5067546;28;20519;-54
2023/05/22 03:38:38;;;;;;;14.87;12.50;;;17.30;1.00;;;;;;5061307;28;20219;-53
2023/05/22 03:41:04;;;;;;;12.83;11.50;;;17.30;1.00;;;;;;5059631;28;20259;-53
2023/05/22 03:43:30;;;;;;;11.67;10.60;;;17.30;1.00;;;;;;5065821;28;20188;-53
2023/05/22 03:45:57;;;;;;;12.97;11.80;;;17.40;1.00;;;;;;5063840;28;20206;-55
2023/05/22 03:48:24;;;;;;;13.47;12.27;;;17.50;1.00;;;;;;5062084;28;20195;-53
2023/05/22 03:50:49;;;;;;;12.70;11.37;;;17.40;1.00;;;;;;5069256;28;20442;-54
2023/05/22 03:53:15;;;;;;;12.80;11.70;;;17.60;1.00;;;;;;5068102;28;20484;-54
2023/05/22 03:55:41;;;;;;;14.00;12.10;;;17.60;1.00;;;;;;5065092;28;20511;-52
2023/05/22 03:58:07;;;;;;;13.07;11.87;;;17.70;1.00;;;;;;5068522;28;21006;-52
2023/05/22 04:00:33;;;;;;;14.47;13.00;;;17.60;1.00;;;;;;5068383;28;20188;-55
2023/05/22 04:02:59;;;;;;;13.60;12.17;;;17.70;1.00;;;;;;5066922;28;20176;-53
2023/05/22 04:05:25;;;;;;;13.80;12.50;;;17.70;1.00;;;;;;5064936;28;20461;-54
2023/05/22 04:07:50;;;;;;;13.23;11.93;;;17.80;1.00;;;;;;5066002;28;20187;-57
2023/05/22 04:10:16;;;;;;;12.50;11.20;;;17.90;1.00;;;;;;5068363;28;20871;-55
2023/05/22 04:12:42;;;;;;;12.27;11.00;;;17.90;1.00;;;;;;5065186;28;20662;-54
2023/05/22 04:15:08;;;;;;;14.27;12.83;;;17.90;1.00;;;;;;5069031;28;20253;-55
2023/05/22 04:17:39;;;;;;;11.67;10.67;;;17.90;1.00;;;;;;5059502;28;21340;-54
2023/05/22 04:20:05;;;;;;;13.33;12.07;;;18.00;1.00;;;;;;5069206;28;20438;-55
2023/05/22 04:22:32;;;;;;;12.03;10.90;;;18.10;1.00;;;;;;5060567;28;20450;-55
2023/05/22 04:24:57;;;;;;;12.47;11.27;;;18.20;1.00;;;;;;5062506;28;20459;-53
2023/05/22 04:27:23;;;;;;;12.40;11.30;;;18.30;1.00;;;;;;5063992;28;20943;-54
2023/05/22 04:29:50;;;;;;;13.03;11.80;;;18.30;1.00;;;;;;5069725;28;20766;-54
2023/05/22 04:32:20;;;;;;;11.60;10.40;;;18.20;1.00;;;;;;5067852;28;20188;-54
2023/05/22 04:34:49;;;;;;;11.13;10.03;;;18.30;1.00;;;;;;5062999;28;20848;-53
2023/05/22 04:37:17;;;;;;;11.53;10.40;;;18.40;1.00;;;;;;5062731;28;20491;-54
2023/05/22 04:39:45;;;;;;;11.90;10.87;;;18.40;1.00;;;;;;5062536;28;20521;-54
2023/05/22 04:42:14;;;;;;;11.83;10.73;;;18.40;1.00;;;;;;5056780;28;20808;-53
2023/05/22 04:44:41;;;;;;;11.90;10.80;;;18.50;1.00;;;;;;5065868;28;20449;-52
2023/05/22 04:47:13;;;;;;;11.63;9.77;;;18.50;1.00;;;;;;5064638;28;20441;-51
2023/05/22 04:49:39;;;;;;;11.57;10.30;;;18.60;1.00;;;;;;5061348;28;20445;-54
2023/05/22 04:52:06;;;;;;;12.17;10.80;;;18.60;1.00;;;;;;5064470;28;20446;-52
2023/05/22 04:54:32;;;;;;;12.10;10.87;;;18.80;1.00;;;;;;5068286;28;20449;-52
2023/05/22 04:56:57;;;;;;;12.43;10.37;;;19.00;1.00;;;;;;5064482;28;20465;-54
2023/05/22 04:59:25;;;;;;;12.53;11.20;;;19.00;1.00;;;;;;5077133;28;20505;-52
2023/05/22 05:01:51;;;;;;;11.33;10.33;;;19.20;1.00;;;;;;5062053;28;20278;-54
2023/05/22 05:04:17;;;;;;;11.13;10.00;;;19.40;1.00;;;;;;5064634;28;20527;-53
2023/05/22 05:06:43;;;;;;;12.20;11.00;;;19.40;1.00;;;;;;5064152;28;20461;-53
2023/05/22 05:09:09;;;;;;;11.00;10.00;;;19.50;1.00;;;;;;5065035;28;20183;-54
2023/05/22 05:11:34;;;;;;;10.63;9.63;;;19.40;1.00;;;;;;5066125;28;20803;-54
2023/05/22 05:14:00;;;;;;;12.43;11.33;;;19.40;1.00;;;;;;5060149;28;20544;-55
2023/05/22 05:16:26;;;;;;;12.17;10.90;;;19.50;1.00;;;;;;5060918;28;20196;-58
2023/05/22 05:18:52;;;;;;;11.73;10.73;;;19.60;1.00;;;;;;5063829;28;20570;-57
2023/05/22 05:21:21;;;;;;;12.00;11.00;;;19.70;1.00;;;;;;5061780;28;20631;-58
2023/05/22 05:23:47;;;;;;;12.67;10.77;;;19.80;1.00;;;;;;5064163;28;20187;-57
2023/05/22 05:26:13;;;;;;;12.90;11.40;;;19.90;1.00;;;;;;5068232;28;20443;-58
2023/05/22 05:28:39;;;;;;;12.00;9.87;;;20.00;1.00;;;;;;5067871;28;20442;-60
2023/05/22 05:31:06;;;;;;;11.77;10.57;;;20.10;1.00;;;;;;5069197;28;20943;-59
2023/05/22 05:33:32;;;;;;;11.67;10.67;;;20.20;1.00;;;;;;5077778;28;21093;-59
2023/05/22 05:35:57;;;;;;;10.73;9.70;;;20.30;1.00;;;;;;5068196;28;20443;-61
2023/05/22 05:38:23;;;;;;;11.77;10.67;;;20.30;1.00;;;;;;5066173;28;20207;-59
2023/05/22 05:40:49;;;;;;;11.23;10.23;;;20.30;1.00;;;;;;5067824;28;20267;-59
2023/05/22 05:43:14;;;;;;;10.43;9.43;;;20.40;1.00;;;;;;5065629;28;20180;-59
2023/05/22 05:45:41;;;;;;;12.37;11.17;;;20.40;1.00;;;;;;5066746;28;20172;-59
2023/05/22 05:48:07;;;;;;;12.60;11.37;;;20.50;1.00;;;;;;5065588;28;21003;-59
2023/05/22 05:50:32;;;;;;;13.07;11.33;;;20.50;1.00;;;;;;5065540;28;20457;-59
2023/05/22 05:52:58;;;;;;;15.97;10.80;;;20.60;1.00;;;;;;5062605;28;20451;-58
2023/05/22 05:55:23;;;;;;;13.80;9.93;;;20.70;1.00;;;;;;5075362;28;20288;-59
2023/05/22 05:57:50;;;;;;;12.83;10.10;;;20.70;1.00;;;;;;5064461;28;20224;-59
2023/05/22 06:00:16;;;;;;;12.03;10.60;;;21.00;99.90;;;;;;5068335;28;20211;-57
2023/05/22 06:02:42;;;;;;;12.10;10.77;;;20.80;99.90;;;;;;5063114;28;20443;-59
2023/05/22 06:05:08;;;;;;;14.23;10.20;;;20.80;99.90;;;;;;5066684;28;20188;-58
2023/05/22 06:07:38;;;;;;;10.63;9.53;;;20.90;99.90;;;;;;5065843;28;20467;-59
2023/05/22 06:10:05;;;;;;;11.00;10.00;;;20.90;99.90;;;;;;5067721;28;21225;-58
2023/05/22 06:12:31;;;;;;;11.40;10.20;;;20.90;99.90;;;;;;5059215;28;20457;-60
2023/05/22 06:14:57;;;;;;;10.87;9.90;;;21.00;99.90;;;;;;5067379;28;20794;-59
2023/05/22 06:17:23;;;;;;;11.17;9.80;;;21.00;99.90;;;;;;5063023;28;20444;-58
2023/05/22 06:19:48;;;;;;;11.27;8.70;;;21.20;99.90;;;;;;5066327;28;20245;-59
2023/05/22 06:22:14;;;;;;;11.53;9.77;;;21.40;99.90;;;;;;5066576;28;20195;-59
2023/05/22 06:24:40;;;;;;;10.87;9.20;;;21.60;99.90;;;;;;5061658;28;20177;-58
2023/05/22 06:27:06;;;;;;;10.13;9.23;;;21.70;99.90;;;;;;5060534;28;20188;-59
2023/05/22 06:29:31;;;;;;;18.33;9.20;;;21.80;99.90;;;;;;5064611;28;20207;-59
2023/05/22 06:31:57;;;;;;;11.17;9.27;;;21.90;99.90;;;;;;5068098;28;20200;-60
2023/05/22 06:34:24;;;;;;;10.10;9.20;;;22.10;99.90;;;;;;5068630;28;20184;-59
2023/05/22 06:36:50;;;;;;;10.60;9.60;;;22.20;99.90;;;;;;5073229;28;20263;-59
2023/05/22 06:39:17;;;;;;;11.67;9.53;;;22.30;99.90;;;;;;5066013;28;20475;-58
2023/05/22 06:41:42;;;;;;;11.23;8.60;;;22.30;99.90;;;;;;5062237;28;20755;-59
2023/05/22 06:44:08;;;;;;;10.33;9.13;;;22.30;99.90;;;;;;5068552;28;20441;-59
2023/05/22 06:46:34;;;;;;;13.90;8.97;;;22.40;99.90;;;;;;5068045;28;20184;-59
2023/05/22 06:48:59;;;;;;;9.80;9.00;;;22.80;99.90;;;;;;5062236;28;20248;-59
2023/05/22 06:51:25;;;;;;;11.53;10.33;;;23.00;99.90;;;;;;5063882;28;20188;-58
2023/05/22 06:53:51;;;;;;;12.77;10.10;;;23.20;99.90;;;;;;5061234;28;20279;-57
2023/05/22 06:56:17;;;;;;;10.13;9.10;;;23.30;99.90;;;;;;5064598;28;20189;-59
2023/05/22 06:58:43;;;;;;;9.57;8.67;;;23.40;99.90;;;;;;5064829;28;20214;-59
2023/05/22 07:01:09;;;;;;;9.40;8.40;;;23.50;99.90;;;;;;5062859;28;20458;-59
2023/05/22 07:03:34;;;;;;;9.90;8.13;;;23.60;99.90;;;;;;5064710;28;20282;-59
2023/05/22 07:06:01;;;;;;;9.90;8.27;;;23.80;99.90;;;;;;5068656;28;20301;-57
2023/05/22 07:08:27;;;;;;;9.40;8.40;;;23.90;99.90;;;;;;5060474;28;20726;-59
2023/05/22 07:10:52;;;;;;;9.23;8.17;;;24.10;99.90;;;;;;5066326;28;20483;-58
2023/05/22 07:13:18;;;;;;;11.60;9.70;;;24.30;99.90;;;;;;5062553;28;20779;-58
2023/05/22 07:15:45;;;;;;;9.67;8.60;;;24.60;99.90;;;;;;5065438;28;20648;-59
2023/05/22 07:18:11;;;;;;;10.67;8.47;;;24.90;99.90;;;;;;5064835;28;20556;-59
2023/05/22 07:20:37;;;;;;;8.30;7.13;;;25.20;99.90;;;;;;5068262;28;20470;-60
2023/05/22 07:23:02;;;;;;;8.43;7.63;;;25.50;99.90;;;;;;5065856;28;20478;-59
2023/05/22 07:25:28;;;;;;;10.50;8.10;;;25.70;99.90;;;;;;5069325;28;20499;-58
2023/05/22 07:27:54;;;;;;;10.67;8.03;;;25.90;99.90;;;;;;5068000;28;20183;-57
2023/05/22 07:30:20;;;;;;;10.23;7.30;;;26.00;99.90;;;;;;5065671;28;20321;-59
2023/05/22 07:32:47;;;;;;;7.50;6.90;;;26.30;99.90;;;;;;5064043;28;20973;-60
2023/05/22 07:35:13;;;;;;;7.93;7.23;;;26.50;99.90;;;;;;5070150;28;20447;-58
2023/05/22 07:37:38;;;;;;;8.17;6.90;;;26.60;99.90;;;;;;5075262;28;20838;-59
2023/05/22 07:40:06;;;;;;;7.60;6.80;;;26.70;99.90;;;;;;5073725;28;20189;-58
2023/05/22 07:42:32;;;;;;;7.17;6.30;;;26.60;99.90;;;;;;5070747;28;20219;-59
2023/05/22 07:44:57;;;;;;;7.97;7.10;;;26.60;99.90;;;;;;5063801;28;20487;-57
2023/05/22 07:47:23;;;;;;;8.47;7.77;;;26.80;99.90;;;;;;5071438;28;20853;-59
2023/05/22 07:49:48;;;;;;;7.40;6.60;;;26.50;99.90;;;;;;5068071;28;20186;-58
2023/05/22 07:52:14;;;;;;;12.07;7.47;;;26.30;99.90;;;;;;5066851;28;20189;-59
2023/05/22 07:54:40;;;;;;;13.17;6.87;;;26.10;99.90;;;;;;5068918;28;20610;-60
2023/05/22 07:57:06;;;;;;;8.90;6.43;;;26.10;99.90;;;;;;5071525;28;20314;-59
2023/05/22 07:59:32;;;;;;;6.30;5.70;;;26.30;99.90;;;;;;5067027;28;20217;-58
2023/05/22 08:01:58;;;;;;;7.10;6.40;;;26.40;99.90;;;;;;5074714;28;20508;-58
2023/05/22 08:04:24;;;;;;;7.23;6.63;;;26.50;99.90;;;;;;5066028;28;20461;-59
2023/05/22 08:06:50;;;;;;;11.17;6.07;;;26.60;99.90;;;;;;5071205;28;20612;-58
2023/05/22 08:09:16;;;;;;;6.50;5.90;;;26.40;99.90;;;;;;5064931;28;20543;-58
2023/05/22 08:11:42;;;;;;;6.77;5.80;;;26.40;99.90;;;;;;5070814;28;20808;-59
2023/05/22 08:14:08;;;;;;;10.97;6.20;;;26.60;99.90;;;;;;5069324;28;20214;-59
2023/05/22 08:16:34;;;;;;;7.80;5.27;;;26.70;99.90;;;;;;5071711;28;20187;-58
2023/05/22 08:18:59;;;;;;;6.93;6.17;;;27.00;99.90;;;;;;5066401;28;20830;-59
2023/05/22 08:21:25;;;;;;;7.97;5.83;;;27.30;99.90;;;;;;5070229;28;20186;-59
2023/05/22 08:23:50;;;;;;;6.83;5.60;;;27.40;99.90;;;;;;5060345;28;20186;-59
2023/05/22 08:26:16;;;;;;;5.80;5.03;;;27.50;99.90;;;;;;5064731;28;20193;-60
2023/05/22 08:28:43;;;;;;;9.73;5.20;;;27.60;99.90;;;;;;5068985;28;20549;-58
2023/05/22 08:31:11;;;;;;;6.17;5.60;;;27.70;99.90;;;;;;5066905;28;20231;-60
2023/05/22 08:33:38;;;;;;;6.80;5.30;;;27.90;99.90;;;;;;5066437;28;21048;-59
2023/05/22 08:36:03;;;;;;;6.37;5.77;;;28.00;99.90;;;;;;5068386;28;20567;-60
2023/05/22 08:38:29;;;;;;;5.63;5.10;;;27.90;99.90;;;;;;5068953;28;20910;-59
2023/05/22 08:40:57;;;;;;;7.17;6.40;;;27.80;99.90;;;;;;5063075;28;20185;-60
2023/05/22 08:43:22;;;;;;;6.60;5.43;;;28.10;99.90;;;;;;5059481;28;20199;-59
2023/05/22 08:45:54;;;;;;;7.17;6.47;;;28.10;99.90;;;;;;5066697;28;20449;-58
2023/05/22 08:48:22;;;;;;;5.63;4.20;;;28.00;99.90;;;;;;5070179;28;20191;-57
2023/05/22 08:50:56;;;;;;;5.53;5.10;;;27.70;99.90;;;;;;5058679;28;20586;-58
2023/05/22 08:53:26;;;;;;;7.07;4.23;;;27.70;99.90;;;;;;5065673;28;20452;-59
2023/05/22 08:55:53;;;;;;;6.33;5.13;;;27.70;99.90;;;;;;5065771;28;20509;-58
2023/05/22 08:58:19;;;;;;;5.37;4.87;;;27.80;99.90;;;;;;5066151;28;21036;-59
2023/05/22 09:00:45;;;;;;;6.03;4.90;;;28.00;99.90;;;;;;5062228;28;20500;-59
2023/05/22 09:03:12;;;;;;;5.10;4.70;;;28.20;99.90;;;;;;5066130;28;20441;-58
2023/05/22 09:05:39;;;;;;;6.30;5.30;;;28.40;99.90;;;;;;5056715;28;20505;-59
2023/05/22 09:08:08;;;;;;;8.57;4.90;;;28.70;99.90;;;;;;5054248;28;21262;-60
2023/05/22 09:10:34;;;;;;;5.70;5.20;;;28.70;99.90;;;;;;5064013;28;20479;-59
2023/05/22 09:13:00;;;;;;;6.60;5.63;;;28.80;99.90;;;;;;5065661;28;20506;-58
2023/05/22 09:15:31;;;;;;;8.13;5.77;;;29.00;99.90;;;;;;5062493;28;20457;-59
2023/05/22 09:17:57;;;;;;;6.67;5.93;;;29.40;99.90;;;;;;5068818;28;20486;-59
2023/05/22 09:20:23;;;;;;;6.00;5.47;;;29.60;99.90;;;;;;5065975;28;20457;-58
2023/05/22 09:22:49;;;;;;;6.20;5.60;;;29.60;99.90;;;;;;5063548;28;20448;-58
2023/05/22 09:25:19;;;;;;;6.83;6.13;;;29.70;99.90;;;;;;5057832;28;20891;-60
2023/05/22 09:27:46;;;;;;;6.10;5.60;;;29.90;99.90;;;;;;5058723;28;20261;-60
2023/05/22 09:30:16;;;;;;;6.87;6.10;;;30.00;99.90;;;;;;5059569;28;20420;-59
2023/05/22 09:32:42;;;;;;;5.93;5.43;;;30.00;99.90;;;;;;5060859;28;20480;-59
2023/05/22 09:35:08;;;;;;;7.27;6.20;;;30.40;99.90;;;;;;5069140;28;20913;-59
2023/05/22 09:37:34;;;;;;;9.40;6.47;;;30.40;99.90;;;;;;5064262;28;20183;-60
2023/05/22 09:40:07;;;;;;;9.27;6.23;;;30.50;99.90;;;;;;5064368;28;20491;-59
2023/05/22 09:42:33;;;;;;;6.53;5.30;;;30.40;99.90;;;;;;5068198;28;20973;-58
2023/05/22 09:45:06;;;;;;;6.20;5.63;;;30.20;99.90;;;;;;5070538;28;20817;-58
2023/05/22 09:47:39;;;;;;;5.87;5.37;;;30.10;99.90;;;;;;5067384;28;20457;-59
2023/05/22 09:50:08;;;;;;;6.50;5.07;;;30.10;99.90;;;;;;5061965;28;20455;-59
2023/05/22 09:52:35;;;;;;;6.10;5.60;;;29.90;99.90;;;;;;5062968;28;20469;-59
2023/05/22 09:55:04;;;;;;;5.93;5.53;;;29.70;99.90;;;;;;5069291;28;20450;-60
2023/05/22 09:57:41;;;;;;;5.90;5.40;;;29.80;99.90;;;;;;5074601;28;20458;-58
2023/05/22 10:00:11;;;;;;;5.87;5.23;;;29.50;99.90;;;;;;5062269;28;20449;-59
2023/05/22 10:02:37;;;;;;;8.40;5.50;;;29.60;99.90;;;;;;5061405;28;20577;-59
2023/05/22 10:05:07;;;;;;;9.57;5.80;;;29.60;99.90;;;;;;5066807;28;20445;-60
2023/05/22 10:07:39;;;;;;;6.00;5.43;;;29.60;99.90;;;;;;5068903;28;20442;-60
2023/05/22 10:10:11;;;;;;;5.53;5.00;;;29.60;99.90;;;;;;5068648;28;20462;-59
2023/05/22 10:12:42;;;;;;;6.60;5.50;;;29.10;99.90;;;;;;5063598;28;21033;-59
2023/05/22 10:15:09;;;;;;;6.17;5.67;;;28.80;99.90;;;;;;5068704;28;20451;-59
2023/05/22 10:17:36;;;;;;;6.60;6.10;;;28.60;99.90;;;;;;5065128;28;20975;-59
2023/05/22 10:20:06;;;;;;;5.40;4.90;;;28.50;99.90;;;;;;5068848;28;20500;-59
2023/05/22 10:22:37;;;;;;;9.33;5.50;;;28.30;99.90;;;;;;5063045;28;20448;-60
2023/05/22 10:25:03;;;;;;;6.20;5.40;;;28.20;99.90;;;;;;5072235;28;20441;-60
2023/05/22 10:27:29;;;;;;;5.10;4.60;;;27.90;99.90;;;;;;5066055;28;20464;-59
2023/05/22 10:30:02;;;;;;;8.00;5.43;;;27.70;99.90;;;;;;5068787;28;20451;-60
2023/05/22 10:32:44;;;;;;;6.00;5.50;;;27.60;99.90;;;;;;5062939;28;20320;-58
2023/05/22 10:35:29;;;;;;;6.73;5.70;;;27.60;99.90;;;;;;5062654;28;20447;-60
2023/05/22 10:38:11;;;;;;;5.20;4.80;;;27.40;99.90;;;;;;5064807;28;20501;-59
2023/05/22 10:40:38;;;;;;;7.27;4.80;;;27.40;99.90;;;;;;5063546;28;21191;-59
2023/05/22 10:43:03;;;;;;;5.30;4.80;;;27.20;99.90;;;;;;5064954;28;20441;-60
2023/05/22 10:45:30;;;;;;;5.20;4.70;;;27.30;99.90;;;;;;5062134;28;20981;-58
2023/05/22 10:48:04;;;;;;;8.10;4.80;;;27.30;99.90;;;;;;5066271;28;20644;-59
2023/05/22 10:50:29;;;;;;;6.40;5.10;;;27.20;99.90;;;;;;5068516;28;20432;-59
2023/05/22 10:53:24;;;;;;;5.00;4.50;;;27.30;99.90;;;;;;5063185;28;20454;-58
2023/05/22 10:55:52;;;;;;;4.30;3.90;;;27.50;99.90;;;;;;5064589;28;20192;-59
2023/05/22 10:58:24;;;;;;;5.87;5.37;;;27.60;99.90;;;;;;5065150;28;21047;-59
2023/05/22 11:01:10;;;;;;;5.53;4.60;;;27.60;99.90;;;;;;5067305;28;20749;-59
2023/05/22 11:03:58;;;;;;;7.70;4.80;;;27.70;99.90;;;;;;5060714;28;20449;-59
2023/05/22 11:06:46;;;;;;;4.77;4.37;;;27.80;99.90;;;;;;5065944;28;20804;-58
2023/05/22 11:09:37;;;;;;;5.30;4.27;;;27.80;99.90;;;;;;5064800;28;20506;-60
2023/05/22 11:12:12;;;;;;;4.90;4.50;;;28.00;99.90;;;;;;5066393;28;20449;-59
2023/05/22 11:14:38;;;;;;;5.70;4.77;;;28.30;99.90;;;;;;5067270;28;23811;-60
2023/05/22 11:17:07;;;;;;;6.23;4.43;;;28.60;99.90;;;;;;5066021;28;20452;-60
2023/05/22 11:19:33;;;;;;;8.13;4.23;;;28.60;99.90;;;;;;5065552;28;20471;-59
2023/05/22 11:22:03;;;;;;;5.80;4.87;;;28.70;99.90;;;;;;5067242;28;20483;-59
2023/05/22 11:24:33;;;;;;;4.83;4.20;;;28.60;99.90;;;;;;5067820;28;20194;-58
2023/05/22 11:27:07;;;;;;;6.53;4.30;;;28.30;99.90;;;;;;5066743;28;20443;-57
2023/05/22 11:29:34;;;;;;;9.10;4.20;;;27.80;99.90;;;;;;5065932;28;20509;-58
2023/05/22 11:32:00;;;;;;;5.30;4.80;;;27.90;99.90;;;;;;5066061;28;20460;-59
2023/05/22 11:34:26;;;;;;;5.93;4.40;;;28.10;99.90;;;;;;5063583;28;20535;-59
2023/05/22 11:37:00;;;;;;;7.17;4.70;;;28.30;99.90;;;;;;5065326;28;21002;-58
2023/05/22 11:39:26;;;;;;;4.53;4.13;;;28.70;99.90;;;;;;5077768;28;20479;-59
2023/05/22 11:41:51;;;;;;;6.00;5.40;;;29.30;99.90;;;;;;5073482;28;20437;-60
2023/05/22 11:44:17;;;;;;;4.33;3.93;;;29.60;99.90;;;;;;5069366;28;20187;-60
2023/05/22 11:46:43;;;;;;;4.30;4.00;;;29.70;99.90;;;;;;5077727;28;20220;-58
2023/05/22 11:49:16;;;;;;;5.10;4.70;;;29.50;99.90;;;;;;5066778;28;20213;-59
2023/05/22 11:51:41;;;;;;;4.80;4.40;;;29.20;99.90;;;;;;5067973;28;20446;-60
2023/05/22 11:54:07;;;;;;;5.00;4.40;;;28.50;99.90;;;;;;5063342;28;20537;-59
2023/05/22 11:56:33;;;;;;;5.33;4.83;;;28.30;99.90;;;;;;5064633;28;21332;-59
2023/05/22 11:58:58;;;;;;;6.17;4.43;;;28.40;99.90;;;;;;5066529;28;20306;-59
2023/05/22 12:01:24;;;;;;;7.37;4.43;;;28.60;99.90;;;;;;5067065;28;20547;-60
2023/05/22 12:03:49;;;;;;;5.03;4.60;;;28.60;99.90;;;;;;5067952;28;20183;-59
2023/05/22 12:06:16;;;;;;;6.47;4.50;;;28.50;99.90;;;;;;5067020;28;20183;-58
2023/05/22 12:08:42;;;;;;;4.63;4.13;;;28.50;99.90;;;;;;5072135;28;20197;-58
2023/05/22 12:11:10;;;;;;;5.80;4.50;;;28.60;99.90;;;;;;5071495;28;20925;-58
2023/05/22 12:13:36;;;;;;;4.70;4.20;;;28.70;99.90;;;;;;5072088;28;20536;-60
2023/05/22 12:16:16;;;;;;;6.50;5.07;;;28.70;99.90;;;;;;5071021;28;20525;-59
2023/05/22 12:18:41;;;;;;;4.53;4.10;;;28.70;99.90;;;;;;5071296;28;20203;-59
2023/05/22 12:21:07;;;;;;;5.80;4.97;;;28.50;99.90;;;;;;5071387;28;20516;-59
2023/05/22 12:23:33;;;;;;;4.93;4.43;;;28.50;99.90;;;;;;5069089;28;20200;-58
2023/05/22 12:26:07;;;;;;;6.07;4.43;;;28.40;99.90;;;;;;5071636;28;20433;-59
2023/05/22 12:28:33;;;;;;;5.77;4.57;;;28.20;99.90;;;;;;5070356;28;20205;-60
2023/05/22 12:30:59;;;;;;;10.70;4.50;;;28.10;99.90;;;;;;5070135;28;21153;-59
2023/05/22 12:33:29;;;;;;;5.20;4.70;;;28.30;99.90;;;;;;5071803;28;20205;-58
2023/05/22 12:35:58;;;;;;;5.80;4.37;;;28.40;99.90;;;;;;5071428;28;21239;-59
2023/05/22 12:38:25;;;;;;;5.20;4.20;;;28.50;99.90;;;;;;5071330;28;20465;-58
2023/05/22 12:40:51;;;;;;;6.07;4.70;;;28.50;99.90;;;;;;5071282;28;20436;-59
2023/05/22 12:43:17;;;;;;;5.80;5.30;;;28.30;99.90;;;;;;5071258;28;20441;-60